createdAt,value
2023-04-17T00:01:05.627Z,59.08
2023-04-17T00:03:33.128Z,58.67
2023-04-17T00:06:00.531Z,60.17
2023-04-17T00:08:28.884Z,59.59
2023-04-17T00:11:06.455Z,61.57
2023-04-17T00:13:36.028Z,60.62
2023-04-17T00:16:03.472Z,61.41
2023-04-17T00:18:31.851Z,61.71
2023-04-17T00:20:59.209Z,61.37
2023-04-17T00:23:26.405Z,60.37
2023-04-17T00:25:53.665Z,61.49
2023-04-17T00:28:23.452Z,61.58
2023-04-17T00:30:50.682Z,62.37
2023-04-17T00:33:17.985Z,62.35
2023-04-17T00:35:45.317Z,62.82
2023-04-17T00:38:12.554Z,63.78
2023-04-17T00:40:39.959Z,64.94
2023-04-17T00:43:07.217Z,64.10
2023-04-17T00:45:35.561Z,65.72
2023-04-17T00:48:04.035Z,65.88
2023-04-17T00:50:31.540Z,66.51
2023-04-17T00:52:58.840Z,66.66
2023-04-17T00:55:26.605Z,66.88
2023-04-17T00:57:54.101Z,65.89
2023-04-17T01:00:21.355Z,66.75
2023-04-17T01:02:48.738Z,67.11
2023-04-17T01:05:16.110Z,66.86
2023-04-17T01:07:43.618Z,68.29
2023-04-17T01:10:11.260Z,68.79
2023-04-17T01:12:38.698Z,68.84
2023-04-17T01:15:06.530Z,67.62
2023-04-17T01:17:33.926Z,67.60
2023-04-17T01:20:01.545Z,68.81
2023-04-17T01:22:28.942Z,68.28
2023-04-17T01:24:56.389Z,67.53
2023-04-17T01:27:23.715Z,68.78
2023-04-17T01:29:51.256Z,69.12
2023-04-17T01:32:18.558Z,68.48
2023-04-17T01:34:45.869Z,69.12
2023-04-17T01:37:13.102Z,69.92
2023-04-17T01:39:40.490Z,69.29
2023-04-17T01:42:07.770Z,69.25
2023-04-17T01:44:37.566Z,69.12
2023-04-17T01:47:05.126Z,69.66
2023-04-17T01:49:32.703Z,69.29
2023-04-17T01:52:00.285Z,68.90
2023-04-17T01:54:27.554Z,69.26
2023-04-17T01:56:54.920Z,70.71
2023-04-17T01:59:22.216Z,69.58
2023-04-17T02:01:52.810Z,68.89
2023-04-17T02:04:20.345Z,70.74
2023-04-17T02:06:47.807Z,69.61
2023-04-17T02:09:15.165Z,69.00
2023-04-17T02:11:42.431Z,68.38
2023-04-17T02:14:09.699Z,68.22
2023-04-17T02:16:37.794Z,68.37
2023-04-17T02:19:05.166Z,68.87
2023-04-17T02:21:32.496Z,67.46
2023-04-17T02:23:59.786Z,66.80
2023-04-17T02:26:26.993Z,67.13
2023-04-17T02:28:54.216Z,66.99
2023-04-17T02:31:21.520Z,67.06
2023-04-17T02:33:48.902Z,67.52
2023-04-17T02:36:16.280Z,67.40
2023-04-17T02:38:43.562Z,66.93
2023-04-17T02:41:10.860Z,66.95
2023-04-17T02:43:38.114Z,67.69
2023-04-17T02:46:05.730Z,68.71
2023-04-17T02:48:32.993Z,69.52
2023-04-17T02:51:00.314Z,69.13
2023-04-17T02:53:27.527Z,70.54
2023-04-17T02:55:54.802Z,70.83
2023-04-17T02:58:22.057Z,71.43
2023-04-17T03:00:49.314Z,71.44
2023-04-17T03:03:16.947Z,71.78
2023-04-17T03:05:44.364Z,71.39
2023-04-17T03:08:12.028Z,72.50
2023-04-17T03:10:39.517Z,72.53
2023-04-17T03:13:06.771Z,71.52
2023-04-17T03:15:35.140Z,72.47
2023-04-17T03:18:02.433Z,72.99
2023-04-17T03:20:30.073Z,72.98
2023-04-17T03:22:57.411Z,71.39
2023-04-17T03:25:24.635Z,71.46
2023-04-17T03:27:51.941Z,72.63
2023-04-17T03:30:19.142Z,71.68
2023-04-17T03:32:46.441Z,72.68
2023-04-17T03:35:13.773Z,72.34
2023-04-17T03:37:41.037Z,73.61
2023-04-17T03:40:08.753Z,73.73
2023-04-17T03:42:36.292Z,73.33
2023-04-17T03:45:04.673Z,72.22
2023-04-17T03:47:32.039Z,71.75
2023-04-17T03:49:59.289Z,70.02
2023-04-17T03:52:26.529Z,69.96
2023-04-17T03:54:53.710Z,70.38
2023-04-17T03:57:20.920Z,70.50
2023-04-17T03:59:48.149Z,70.08
2023-04-17T04:02:15.696Z,69.07
2023-04-17T04:04:43.123Z,69.51
2023-04-17T04:07:10.494Z,68.81
2023-04-17T04:09:37.706Z,68.22
2023-04-17T04:12:04.941Z,69.06
2023-04-17T04:14:32.180Z,68.76
2023-04-17T04:16:59.461Z,67.21
2023-04-17T04:19:26.784Z,66.00
2023-04-17T04:21:54.016Z,66.43
2023-04-17T04:24:21.236Z,66.84
2023-04-17T04:26:49.725Z,65.39
2023-04-17T04:29:17.860Z,64.64
2023-04-17T04:31:46.857Z,62.96
2023-04-17T04:34:16.894Z,63.59
2023-04-17T04:36:50.037Z,62.11
2023-04-17T04:39:20.836Z,61.32
2023-04-17T04:41:50.466Z,60.35
2023-04-17T04:44:18.786Z,58.95
2023-04-17T04:46:46.438Z,57.99
2023-04-17T04:49:13.729Z,57.20
2023-04-17T04:51:41.210Z,56.58
2023-04-17T04:54:08.483Z,55.51
2023-04-17T04:56:35.829Z,54.70
2023-04-17T04:59:03.113Z,54.30
2023-04-17T05:01:30.472Z,53.62
2023-04-17T05:03:57.877Z,53.87
2023-04-17T05:06:25.222Z,53.39
2023-04-17T05:08:52.554Z,52.51
2023-04-17T05:11:19.859Z,51.66
2023-04-17T05:13:47.125Z,50.16
2023-04-17T05:16:14.395Z,50.69
2023-04-17T05:18:41.611Z,48.95
2023-04-17T05:21:08.846Z,48.65
2023-04-17T05:23:36.303Z,47.37
2023-04-17T05:26:03.592Z,47.32
2023-04-17T05:28:31.088Z,46.13
2023-04-17T05:30:58.640Z,46.65
2023-04-17T05:33:25.830Z,45.99
2023-04-17T05:35:55.460Z,45.58
2023-04-17T05:38:23.555Z,45.67
2023-04-17T05:40:52.741Z,44.40
2023-04-17T05:43:20.386Z,43.88
2023-04-17T05:45:47.771Z,44.04
2023-04-17T05:48:16.242Z,43.35
2023-04-17T05:50:43.490Z,42.84
2023-04-17T05:53:10.814Z,43.13
2023-04-17T05:55:38.082Z,43.59
2023-04-17T05:58:20.416Z,42.89
2023-04-17T06:00:50.873Z,42.61
2023-04-17T06:03:19.374Z,42.58
2023-04-17T06:05:47.241Z,42.79
2023-04-17T06:08:14.647Z,42.19
2023-04-17T06:10:41.845Z,42.06
2023-04-17T06:13:09.217Z,40.65
2023-04-17T06:15:36.640Z,40.99
2023-04-17T06:18:03.967Z,42.06
2023-04-17T06:20:31.393Z,41.12
2023-04-17T06:22:58.749Z,40.73
2023-04-17T06:25:26.404Z,40.48
2023-04-17T06:27:53.624Z,40.26
2023-04-17T06:30:20.950Z,39.71
2023-04-17T06:32:48.317Z,39.30
2023-04-17T06:35:15.698Z,38.79
2023-04-17T06:37:42.920Z,39.17
2023-04-17T06:40:12.320Z,38.14
2023-04-17T06:42:39.761Z,38.87
2023-04-17T06:45:07.576Z,38.80
2023-04-17T06:47:35.458Z,39.79
2023-04-17T06:50:03.674Z,38.50
2023-04-17T06:52:31.177Z,39.36
2023-04-17T06:54:58.969Z,38.27
2023-04-17T06:57:26.155Z,38.37
2023-04-17T06:59:53.490Z,38.54
2023-04-17T07:02:20.994Z,38.92
2023-04-17T07:04:48.512Z,39.39
2023-04-17T07:07:16.015Z,39.89
2023-04-17T07:09:44.175Z,38.95
2023-04-17T07:12:11.618Z,38.71
2023-04-17T07:14:40.616Z,37.96
2023-04-17T07:17:07.857Z,37.50
2023-04-17T07:19:35.357Z,37.18
2023-04-17T07:22:02.797Z,37.47
2023-04-17T07:24:34.749Z,37.24
2023-04-17T07:27:03.190Z,37.03
2023-04-17T07:29:30.864Z,36.40
2023-04-17T07:31:58.409Z,37.22
2023-04-17T07:34:25.944Z,36.45
2023-04-17T07:36:54.597Z,35.86
2023-04-17T07:39:21.834Z,35.75
2023-04-17T07:41:49.447Z,35.82
2023-04-17T07:44:18.231Z,36.65
2023-04-17T07:46:46.069Z,36.00
2023-04-17T07:49:13.751Z,36.10
2023-04-17T07:51:41.483Z,35.82
2023-04-17T07:54:08.831Z,35.27
2023-04-17T07:56:36.625Z,34.78
2023-04-17T07:59:04.817Z,35.58
2023-04-17T08:01:33.862Z,34.78
2023-04-17T08:04:02.338Z,34.88
2023-04-17T08:06:30.134Z,34.47
2023-04-17T08:08:57.401Z,34.49
2023-04-17T08:11:24.770Z,34.36
2023-04-17T08:13:51.975Z,33.62
2023-04-17T08:16:19.495Z,34.28
2023-04-17T08:18:46.859Z,33.80
2023-04-17T08:21:14.075Z,34.97
2023-04-17T08:23:41.893Z,33.76
2023-04-17T08:26:09.128Z,34.53
2023-04-17T08:28:37.175Z,33.55
2023-04-17T08:31:04.821Z,33.21
2023-04-17T08:33:32.128Z,33.67
2023-04-17T08:36:00.253Z,33.59
2023-04-17T08:38:31.189Z,32.38
2023-04-17T08:40:59.478Z,32.80
2023-04-17T08:43:26.925Z,32.23
2023-04-17T08:45:55.467Z,30.43
2023-04-17T08:48:23.770Z,30.55
2023-04-17T08:50:52.361Z,30.38
2023-04-17T08:53:19.928Z,29.25
2023-04-17T08:55:47.442Z,28.67
2023-04-17T08:58:15.164Z,28.51
2023-04-17T09:00:43.655Z,27.72
2023-04-17T09:03:12.815Z,26.49
2023-04-17T09:05:48.495Z,25.86
2023-04-17T09:08:16.975Z,26.06
2023-04-17T09:10:48.751Z,25.40
2023-04-17T09:13:17.517Z,25.63
2023-04-17T09:15:46.074Z,25.48
2023-04-17T09:18:26.881Z,24.77
2023-04-17T09:20:54.285Z,24.28
2023-04-17T09:23:23.464Z,23.39
2023-04-17T09:26:16.204Z,23.76
2023-04-17T09:29:09.366Z,24.52
2023-04-17T09:31:42.267Z,24.02
2023-04-17T09:34:13.384Z,23.88
2023-04-17T09:36:41.729Z,24.42
2023-04-17T09:39:24.431Z,24.33
2023-04-17T09:42:03.605Z,23.84
2023-04-17T09:44:31.370Z,23.06
2023-04-17T09:46:58.943Z,22.91
2023-04-17T09:49:49.591Z,23.57
2023-04-17T09:52:17.024Z,23.59
2023-04-17T09:54:44.305Z,22.58
2023-04-17T09:57:11.621Z,21.94
2023-04-17T09:59:43.171Z,22.56
2023-04-17T10:02:12.502Z,22.23
2023-04-17T10:04:49.000Z,22.62
2023-04-17T10:07:17.927Z,23.06
2023-04-17T10:09:45.932Z,22.62
2023-04-17T10:12:17.893Z,23.37
2023-04-17T10:14:48.855Z,23.47
2023-04-17T10:17:31.659Z,22.24
2023-04-17T10:20:20.289Z,23.06
2023-04-17T10:22:57.241Z,23.19
2023-04-17T10:25:25.762Z,23.08
2023-04-17T10:27:54.456Z,22.97
2023-04-17T10:30:23.446Z,22.98
2023-04-17T10:33:24.977Z,22.28
2023-04-17T10:35:52.560Z,22.45
2023-04-17T10:38:33.361Z,21.73
2023-04-17T10:41:04.955Z,22.21
2023-04-17T10:43:32.262Z,22.23
2023-04-17T10:46:06.855Z,21.55
2023-04-17T10:48:39.234Z,21.66
2023-04-17T10:51:27.156Z,23.02
2023-04-17T10:53:54.317Z,21.91
2023-04-17T10:56:25.915Z,22.16
2023-04-17T10:59:00.507Z,21.73
2023-04-17T11:01:31.753Z,21.35
2023-04-17T11:04:00.205Z,21.77
2023-04-17T11:06:28.883Z,21.98
2023-04-17T11:09:10.300Z,21.50
2023-04-17T11:11:45.242Z,21.27
2023-04-17T11:14:17.680Z,20.68
2023-04-17T11:16:46.262Z,21.19
2023-04-17T11:19:21.557Z,21.62
2023-04-17T11:21:49.946Z,21.60
2023-04-17T11:24:24.102Z,21.02
2023-04-17T11:26:51.569Z,21.35
2023-04-17T11:29:20.527Z,21.33
2023-04-17T11:31:48.627Z,22.10
2023-04-17T11:34:16.321Z,22.21
2023-04-17T11:36:50.122Z,21.36
2023-04-17T11:39:18.356Z,22.44
2023-04-17T11:41:46.471Z,21.77
2023-04-17T11:44:14.051Z,21.91
2023-04-17T11:46:41.330Z,21.31
2023-04-17T11:49:08.777Z,21.74
2023-04-17T11:51:36.310Z,21.84
2023-04-17T11:54:03.771Z,21.62
2023-04-17T11:56:31.343Z,21.10
2023-04-17T11:58:59.482Z,21.65
2023-04-17T12:01:28.781Z,20.84
2023-04-17T12:03:57.100Z,21.29
2023-04-17T12:06:24.929Z,21.56
2023-04-17T12:08:53.695Z,21.35
2023-04-17T12:11:31.270Z,21.81
2023-04-17T12:13:59.166Z,21.34
2023-04-17T12:16:26.998Z,21.54
2023-04-17T12:18:54.379Z,21.39
2023-04-17T12:21:22.012Z,21.14
2023-04-17T12:23:49.463Z,21.07
2023-04-17T12:26:16.669Z,21.30
2023-04-17T12:28:43.943Z,20.53
2023-04-17T12:31:11.209Z,20.28
2023-04-17T12:33:38.583Z,20.37
2023-04-17T12:36:06.860Z,20.22
2023-04-17T12:38:34.450Z,20.46
2023-04-17T12:41:01.654Z,20.82
2023-04-17T12:43:28.868Z,20.21
2023-04-17T12:45:58.353Z,20.80
2023-04-17T12:48:25.776Z,19.99
2023-04-17T12:50:54.280Z,20.48
2023-04-17T12:53:21.811Z,20.23
2023-04-17T12:55:49.155Z,21.24
2023-04-17T12:58:16.684Z,20.69
2023-04-17T13:00:44.420Z,20.13
2023-04-17T13:03:12.337Z,20.94
2023-04-17T13:05:40.572Z,21.02
2023-04-17T13:08:12.475Z,20.96
2023-04-17T13:10:43.836Z,21.17
2023-04-17T13:13:11.147Z,21.20
2023-04-17T13:15:38.413Z,21.11
2023-04-17T13:18:05.902Z,21.75
2023-04-17T13:20:33.345Z,21.93
2023-04-17T13:23:00.670Z,21.98
2023-04-17T13:25:29.585Z,21.47
2023-04-17T13:27:56.866Z,21.27
2023-04-17T13:30:25.129Z,20.56
2023-04-17T13:32:52.496Z,21.40
2023-04-17T13:35:19.764Z,21.01
2023-04-17T13:37:47.134Z,21.04
2023-04-17T13:40:17.200Z,21.16
2023-04-17T13:42:44.701Z,20.98
2023-04-17T13:45:12.532Z,20.77
2023-04-17T13:47:39.932Z,21.46
2023-04-17T13:50:07.918Z,22.54
2023-04-17T13:52:35.370Z,22.74
2023-04-17T13:55:02.630Z,22.43
2023-04-17T13:57:30.026Z,22.20
2023-04-17T13:59:57.458Z,22.83
2023-04-17T14:02:25.351Z,23.04
2023-04-17T14:04:52.957Z,23.40
2023-04-17T14:07:20.387Z,23.12
2023-04-17T14:09:47.599Z,23.67
2023-04-17T14:12:20.411Z,23.91
2023-04-17T14:14:47.716Z,24.40
2023-04-17T14:17:14.949Z,24.37
2023-04-17T14:19:42.315Z,24.01
2023-04-17T14:22:09.496Z,24.78
2023-04-17T14:24:36.713Z,24.00
2023-04-17T14:27:04.129Z,25.19
2023-04-17T14:29:31.357Z,25.81
2023-04-17T14:31:58.610Z,25.36
2023-04-17T14:34:25.876Z,25.57
2023-04-17T14:36:53.200Z,25.81
2023-04-17T14:39:20.438Z,25.98
2023-04-17T14:41:47.819Z,26.59
2023-04-17T14:44:15.221Z,26.34
2023-04-17T14:46:42.607Z,26.28
2023-04-17T14:49:09.887Z,26.70
2023-04-17T14:51:37.100Z,26.73
2023-04-17T14:54:04.506Z,26.97
2023-04-17T14:56:32.789Z,27.52
2023-04-17T14:59:00.528Z,27.69
2023-04-17T15:01:27.928Z,27.30
2023-04-17T15:03:55.413Z,27.06
2023-04-17T15:06:22.948Z,27.55
2023-04-17T15:08:50.342Z,28.10
2023-04-17T15:11:17.702Z,27.80
2023-04-17T15:13:44.972Z,27.98
2023-04-17T15:16:12.216Z,28.01
2023-04-17T15:18:39.715Z,28.19
2023-04-17T15:21:07.154Z,28.34
2023-04-17T15:23:35.635Z,28.21
2023-04-17T15:26:02.922Z,27.99
2023-04-17T15:28:33.995Z,28.40
2023-04-17T15:31:02.444Z,28.42
2023-04-17T15:33:29.795Z,28.56
2023-04-17T15:35:58.511Z,28.47
2023-04-17T15:38:26.504Z,28.78
2023-04-17T15:40:54.117Z,28.84
2023-04-17T15:43:21.411Z,28.84
2023-04-17T15:45:49.015Z,28.90
2023-04-17T15:48:16.342Z,29.35
2023-04-17T15:50:43.830Z,29.49
2023-04-17T15:53:11.189Z,29.36
2023-04-17T15:55:38.608Z,29.57
2023-04-17T15:58:05.903Z,29.34
2023-04-17T16:00:34.131Z,29.94
2023-04-17T16:03:01.549Z,29.53
2023-04-17T16:05:29.738Z,29.38
2023-04-17T16:07:57.131Z,29.90
2023-04-17T16:10:24.567Z,30.22
2023-04-17T16:12:51.875Z,29.97
2023-04-17T16:15:19.099Z,30.18
2023-04-17T16:17:48.543Z,29.88
2023-04-17T16:20:16.030Z,30.53
2023-04-17T16:22:43.352Z,30.36
2023-04-17T16:25:13.564Z,30.52
2023-04-17T16:27:41.205Z,30.39
2023-04-17T16:30:09.381Z,30.93
2023-04-17T16:32:37.112Z,30.71
2023-04-17T16:35:04.695Z,31.01
2023-04-17T16:37:31.934Z,31.07
2023-04-17T16:40:04.759Z,31.32
2023-04-17T16:42:32.800Z,31.45
2023-04-17T16:45:00.286Z,31.34
2023-04-17T16:47:30.997Z,31.56
2023-04-17T16:49:58.316Z,31.68
2023-04-17T16:52:25.605Z,31.49
2023-04-17T16:54:52.833Z,32.12
2023-04-17T16:57:20.985Z,32.10
2023-04-17T16:59:48.236Z,32.18
2023-04-17T17:02:15.546Z,31.90
2023-04-17T17:04:44.837Z,32.36
2023-04-17T17:07:12.261Z,32.27
2023-04-17T17:09:39.783Z,32.53
2023-04-17T17:12:07.080Z,32.41
2023-04-17T17:14:34.764Z,32.34
2023-04-17T17:17:02.154Z,32.88
2023-04-17T17:19:29.549Z,32.58
2023-04-17T17:21:56.988Z,32.83
2023-04-17T17:24:24.237Z,32.67
2023-04-17T17:26:51.506Z,32.73
2023-04-17T17:29:18.753Z,32.98
2023-04-17T17:31:46.011Z,33.40
2023-04-17T17:36:43.556Z,33.23
2023-04-17T17:39:11.226Z,33.55
2023-04-17T17:41:38.610Z,33.86
2023-04-17T17:44:05.873Z,33.74
2023-04-17T17:46:35.829Z,33.65
2023-04-17T17:49:03.178Z,33.53
2023-04-17T17:51:32.634Z,33.42
2023-04-17T17:53:59.941Z,33.59
2023-04-17T17:56:28.348Z,33.56
2023-04-17T17:58:55.900Z,33.67
2023-04-17T18:01:24.851Z,33.75
2023-04-17T18:03:53.348Z,33.79
2023-04-17T18:06:21.363Z,33.76
2023-04-17T18:08:49.159Z,33.93
2023-04-17T18:11:16.354Z,33.95
2023-04-17T18:13:43.564Z,33.86
2023-04-17T18:16:10.937Z,33.61
2023-04-17T18:18:38.958Z,34.15
2023-04-17T18:21:07.288Z,33.76
2023-04-17T18:23:34.544Z,33.93
2023-04-17T18:26:02.813Z,34.10
2023-04-17T18:28:30.175Z,34.22
2023-04-17T18:30:57.479Z,33.92
2023-04-17T18:33:24.883Z,34.92
2023-04-17T18:35:52.239Z,34.50
2023-04-17T18:38:19.974Z,34.36
2023-04-17T18:40:47.195Z,34.42
2023-04-17T18:43:14.396Z,35.19
2023-04-17T18:45:41.618Z,35.12
2023-04-17T18:48:09.153Z,34.88
2023-04-17T18:50:38.430Z,35.48
2023-04-17T18:53:05.737Z,36.15
2023-04-17T18:55:33.224Z,35.19
2023-04-17T18:58:00.552Z,35.50
2023-04-17T19:00:27.854Z,35.81
2023-04-17T19:02:55.941Z,35.87
2023-04-17T19:05:25.676Z,35.85
2023-04-17T19:07:53.817Z,36.08
2023-04-17T19:10:21.521Z,35.94
2023-04-17T19:12:49.876Z,35.71
2023-04-17T19:15:19.238Z,35.71
2023-04-17T19:17:47.930Z,35.77
2023-04-17T19:20:16.693Z,35.99
2023-04-17T19:22:44.252Z,35.58
2023-04-17T19:25:11.681Z,35.63
2023-04-17T19:27:39.325Z,35.75
2023-04-17T19:30:10.746Z,35.72
2023-04-17T19:32:37.975Z,35.85
2023-04-17T19:35:05.749Z,36.36
2023-04-17T19:37:33.584Z,35.94
2023-04-17T19:42:29.384Z,35.98
2023-04-17T19:44:56.698Z,36.02
2023-04-17T19:47:26.777Z,36.46
2023-04-17T19:49:53.996Z,36.80
2023-04-17T19:52:21.454Z,36.86
2023-04-17T19:54:48.741Z,37.43
2023-04-17T19:57:16.009Z,37.05
2023-04-17T19:59:43.306Z,36.88
2023-04-17T20:02:11.461Z,36.96
2023-04-17T20:04:38.924Z,36.97
2023-04-17T20:07:07.128Z,36.97
2023-04-17T20:09:34.460Z,37.48
2023-04-17T20:12:01.732Z,37.40
2023-04-17T20:14:29.256Z,37.45
2023-04-17T20:16:56.649Z,37.44
2023-04-17T20:19:24.119Z,37.74
2023-04-17T20:21:51.381Z,38.05
2023-04-17T20:24:18.635Z,38.28
2023-04-17T20:26:45.931Z,38.40
2023-04-17T20:29:13.538Z,38.17
2023-04-17T20:31:41.132Z,38.54
2023-04-17T20:34:08.382Z,39.26
2023-04-17T20:36:35.614Z,38.99
2023-04-17T20:39:03.278Z,39.11
2023-04-17T20:41:31.814Z,39.36
2023-04-17T20:43:59.562Z,39.41
2023-04-17T20:46:27.298Z,39.15
2023-04-17T20:48:54.736Z,39.55
2023-04-17T20:51:24.804Z,39.88
2023-04-17T20:53:52.717Z,39.80
2023-04-17T20:56:21.149Z,39.58
2023-04-17T20:58:48.389Z,39.67
2023-04-17T21:01:16.169Z,39.67
2023-04-17T21:03:44.074Z,40.04
2023-04-17T21:06:11.436Z,39.79
2023-04-17T21:08:40.034Z,39.85
2023-04-17T21:11:07.317Z,39.88
2023-04-17T21:13:34.882Z,40.42
2023-04-17T21:16:02.325Z,40.40
2023-04-17T21:18:29.794Z,40.74
2023-04-17T21:20:57.082Z,40.37
2023-04-17T21:23:24.311Z,40.73
2023-04-17T21:25:54.924Z,40.45
2023-04-17T21:28:23.117Z,40.77
2023-04-17T21:30:50.385Z,40.80
2023-04-17T21:33:18.090Z,40.79
2023-04-17T21:35:45.782Z,41.14
2023-04-17T21:38:13.074Z,41.35
2023-04-17T21:40:50.476Z,40.98
2023-04-17T21:43:18.901Z,40.97
2023-04-17T21:45:46.482Z,41.08
2023-04-17T21:48:16.831Z,41.29
2023-04-17T21:50:44.357Z,41.26
2023-04-17T21:53:11.620Z,41.68
2023-04-17T21:55:39.144Z,41.60
2023-04-17T21:58:07.029Z,41.24
2023-04-17T22:00:34.506Z,41.77
2023-04-17T22:03:02.073Z,41.31
2023-04-17T22:05:29.492Z,41.51
2023-04-17T22:07:56.693Z,41.60
2023-04-17T22:10:24.213Z,41.50
2023-04-17T22:12:51.499Z,41.78
2023-04-17T22:15:18.973Z,41.67
2023-04-17T22:17:46.331Z,42.13
2023-04-17T22:20:13.700Z,42.09
2023-04-17T22:22:41.033Z,41.79
2023-04-17T22:25:08.672Z,41.84
2023-04-17T22:27:36.088Z,41.85
2023-04-17T22:30:04.178Z,42.18
2023-04-17T22:32:36.140Z,42.00
2023-04-17T22:35:04.351Z,41.77
2023-04-17T22:37:31.839Z,42.02
2023-04-17T22:39:59.064Z,42.51
2023-04-17T22:42:26.466Z,41.96
2023-04-17T22:44:53.657Z,42.09
2023-04-17T22:47:21.432Z,42.42
2023-04-17T22:49:48.767Z,42.27
2023-04-17T22:52:16.164Z,43.06
2023-04-17T22:54:43.691Z,42.36
2023-04-17T22:57:11.224Z,42.84
2023-04-17T22:59:38.679Z,42.25
2023-04-17T23:02:06.223Z,42.56
2023-04-17T23:04:33.695Z,42.62
2023-04-17T23:07:01.160Z,42.53
2023-04-17T23:09:28.431Z,42.79
2023-04-17T23:11:56.121Z,42.91
2023-04-17T23:14:23.460Z,42.92
2023-04-17T23:16:52.701Z,42.53
2023-04-17T23:19:22.382Z,42.84
2023-04-17T23:21:49.601Z,42.76
2023-04-17T23:24:16.960Z,43.08
2023-04-17T23:26:44.148Z,43.44
2023-04-17T23:29:11.355Z,43.43
2023-04-17T23:31:38.688Z,43.46
2023-04-17T23:34:06.040Z,43.43
2023-04-17T23:36:33.881Z,43.57
2023-04-17T23:39:01.350Z,43.77
2023-04-17T23:41:29.654Z,43.71
2023-04-17T23:43:56.862Z,43.25
2023-04-17T23:46:24.199Z,43.97
2023-04-17T23:48:51.406Z,43.71
2023-04-17T23:51:18.915Z,44.22
2023-04-17T23:53:46.376Z,43.45
2023-04-17T23:56:13.608Z,43.47
2023-04-17T23:58:40.865Z,44.33
